createdAt,value
2019-05-25T00:02:14.160Z,12.88
2019-05-25T00:04:43.141Z,12.87
2019-05-25T00:07:11.944Z,12.94
2019-05-25T00:09:40.524Z,12.80
2019-05-25T00:12:09.235Z,12.72
2019-05-25T00:14:38.194Z,12.79
2019-05-25T00:17:07.056Z,12.58
2019-05-25T00:19:35.920Z,12.52
2019-05-25T00:22:04.547Z,12.58
2019-05-25T00:24:33.281Z,12.64
2019-05-25T00:27:01.957Z,12.52
2019-05-25T00:29:30.610Z,12.53
2019-05-25T00:31:59.212Z,12.58
2019-05-25T00:34:27.755Z,12.54
2019-05-25T00:36:56.331Z,12.29
2019-05-25T00:39:25.390Z,12.24
2019-05-25T00:41:54.002Z,12.40
2019-05-25T00:44:22.682Z,12.45
2019-05-25T00:46:51.288Z,12.38
2019-05-25T00:49:19.869Z,12.37
2019-05-25T00:51:48.458Z,12.47
2019-05-25T00:54:27.565Z,12.34
2019-05-25T00:56:47.726Z,12.42
2019-05-25T00:59:16.274Z,12.33
2019-05-25T01:01:44.849Z,12.24
2019-05-25T01:04:13.472Z,12.18
2019-05-25T01:06:42.083Z,12.27
2019-05-25T01:09:10.652Z,12.19
2019-05-25T01:11:39.176Z,12.13
2019-05-25T01:14:07.684Z,12.26
2019-05-25T01:16:36.311Z,12.27
2019-05-25T01:19:04.853Z,12.22
2019-05-25T01:21:33.399Z,12.20
2019-05-25T01:24:01.893Z,12.22
2019-05-25T01:26:30.432Z,12.16
2019-05-25T01:28:59.123Z,12.29
2019-05-25T01:31:27.802Z,12.23
2019-05-25T01:33:56.364Z,12.11
2019-05-25T01:36:24.930Z,12.13
2019-05-25T01:38:53.443Z,12.12
2019-05-25T01:41:21.936Z,12.24
2019-05-25T01:43:50.710Z,12.30
2019-05-25T01:46:19.219Z,12.11
2019-05-25T01:48:47.720Z,12.19
2019-05-25T01:51:16.196Z,12.20
2019-05-25T01:53:44.722Z,12.12
2019-05-25T01:56:13.273Z,12.20
2019-05-25T01:58:41.768Z,12.21
2019-05-25T02:01:10.243Z,12.12
2019-05-25T02:03:38.805Z,12.21
2019-05-25T02:06:07.362Z,12.30
2019-05-25T02:08:35.856Z,12.44
2019-05-25T02:11:04.370Z,12.38
2019-05-25T02:13:32.942Z,12.42
2019-05-25T02:16:01.457Z,12.46
2019-05-25T02:18:29.981Z,12.45
2019-05-25T02:20:58.481Z,12.23
2019-05-25T02:23:27.031Z,12.28
2019-05-25T02:25:55.538Z,12.27
2019-05-25T02:28:24.115Z,12.10
2019-05-25T02:30:52.641Z,12.07
2019-05-25T02:33:21.112Z,12.07
2019-05-25T02:35:49.595Z,12.18
2019-05-25T02:38:18.107Z,12.11
2019-05-25T02:40:46.598Z,11.99
2019-05-25T02:43:15.140Z,11.93
2019-05-25T02:45:43.699Z,11.87
2019-05-25T02:48:12.264Z,11.88
2019-05-25T02:50:40.870Z,11.98
2019-05-25T02:53:09.347Z,11.88
2019-05-25T02:55:37.819Z,11.85
2019-05-25T02:58:06.321Z,11.90
2019-05-25T03:00:35.084Z,11.79
2019-05-25T03:03:03.741Z,11.68
2019-05-25T03:05:32.260Z,11.71
2019-05-25T03:08:00.808Z,11.67
2019-05-25T03:10:29.394Z,11.73
2019-05-25T03:12:58.935Z,11.86
2019-05-25T03:15:27.419Z,11.92
2019-05-25T03:17:55.952Z,11.91
2019-05-25T03:20:24.433Z,11.89
2019-05-25T03:22:53.013Z,11.89
2019-05-25T03:25:21.616Z,11.91
2019-05-25T03:27:50.101Z,11.84
2019-05-25T03:30:21.864Z,11.86
2019-05-25T03:32:50.414Z,11.95
2019-05-25T03:35:18.904Z,11.98
2019-05-25T03:37:47.495Z,11.95
2019-05-25T03:40:15.992Z,11.98
2019-05-25T03:42:44.645Z,12.01
2019-05-25T03:45:14.749Z,11.96
2019-05-25T03:47:43.229Z,11.98
2019-05-25T03:50:11.760Z,11.98
2019-05-25T03:52:40.309Z,11.98
2019-05-25T03:55:08.826Z,11.95
2019-05-25T03:57:37.338Z,12.00
2019-05-25T04:00:06.806Z,12.02
2019-05-25T04:02:35.320Z,12.03
2019-05-25T04:05:07.261Z,11.98
2019-05-25T04:07:35.848Z,11.95
2019-05-25T04:10:05.668Z,11.98
2019-05-25T04:12:34.169Z,12.02
2019-05-25T04:15:02.732Z,12.01
2019-05-25T04:17:31.236Z,12.10
2019-05-25T04:19:59.745Z,12.07
2019-05-25T04:22:28.232Z,12.05
2019-05-25T04:24:56.876Z,12.05
2019-05-25T04:27:25.464Z,12.07
2019-05-25T04:29:53.931Z,12.08
2019-05-25T04:32:22.404Z,12.07
2019-05-25T04:34:50.985Z,12.07
2019-05-25T04:37:19.535Z,12.12
2019-05-25T04:39:48.048Z,12.11
2019-05-25T04:42:16.615Z,12.12
2019-05-25T04:44:45.193Z,12.14
2019-05-25T04:47:26.167Z,12.22
2019-05-25T04:49:43.939Z,12.25
2019-05-25T04:52:12.504Z,12.19
2019-05-25T04:54:41.053Z,12.07
2019-05-25T04:57:09.605Z,12.16
2019-05-25T04:59:38.158Z,12.09
2019-05-25T05:02:06.649Z,12.33
2019-05-25T05:04:35.218Z,12.51
2019-05-25T05:07:03.789Z,12.68
2019-05-25T05:09:32.328Z,12.65
2019-05-25T05:12:00.864Z,12.68
2019-05-25T05:14:29.426Z,12.70
2019-05-25T05:16:57.997Z,12.96
2019-05-25T05:19:26.584Z,13.15
2019-05-25T05:21:55.117Z,13.27
2019-05-25T05:24:23.600Z,13.36
2019-05-25T05:26:55.999Z,13.40
2019-05-25T05:29:22.331Z,13.58
2019-05-25T05:31:50.817Z,13.87
2019-05-25T05:34:19.330Z,13.85
2019-05-25T05:36:48.082Z,13.93
2019-05-25T05:39:16.767Z,13.93
2019-05-25T05:41:45.308Z,14.10
2019-05-25T05:44:13.781Z,14.14
2019-05-25T05:46:42.307Z,13.99
2019-05-25T05:49:10.871Z,14.04
2019-05-25T05:51:39.366Z,14.11
2019-05-25T05:54:07.954Z,14.19
2019-05-25T05:56:36.444Z,14.43
2019-05-25T05:59:04.969Z,14.58
2019-05-25T06:01:33.536Z,14.64
2019-05-25T06:04:02.222Z,14.69
2019-05-25T06:06:30.903Z,14.65
2019-05-25T06:08:59.463Z,14.86
2019-05-25T06:11:28.035Z,14.96
2019-05-25T06:13:56.640Z,15.03
2019-05-25T06:16:25.134Z,15.08
2019-05-25T06:18:53.636Z,15.10
2019-05-25T06:21:22.134Z,15.12
2019-05-25T06:23:50.619Z,15.21
2019-05-25T06:26:19.156Z,15.23
2019-05-25T06:28:47.700Z,15.28
2019-05-25T06:31:16.186Z,15.42
2019-05-25T06:33:44.768Z,15.35
2019-05-25T06:36:13.324Z,15.42
2019-05-25T06:38:41.884Z,15.43
2019-05-25T06:41:10.399Z,15.47
2019-05-25T06:43:38.884Z,15.60
2019-05-25T06:46:07.510Z,15.58
2019-05-25T06:48:36.150Z,15.58
2019-05-25T06:51:05.006Z,15.36
2019-05-25T06:53:33.493Z,15.48
2019-05-25T06:56:02.034Z,15.70
2019-05-25T06:58:30.748Z,15.79
2019-05-25T07:00:59.356Z,15.89
2019-05-25T07:03:27.871Z,16.16
2019-05-25T07:05:56.431Z,16.23
2019-05-25T07:08:25.031Z,16.28
2019-05-25T07:10:53.516Z,16.26
2019-05-25T07:13:22.023Z,16.45
2019-05-25T07:15:50.643Z,16.54
2019-05-25T07:18:19.189Z,16.44
2019-05-25T07:20:47.769Z,16.49
2019-05-25T07:23:16.303Z,16.47
2019-05-25T07:25:44.898Z,16.63
2019-05-25T07:28:13.404Z,16.86
2019-05-25T07:30:41.890Z,16.85
2019-05-25T07:33:10.394Z,16.91
2019-05-25T07:35:38.936Z,16.77
2019-05-25T07:38:07.534Z,16.80
2019-05-25T07:40:36.031Z,16.89
2019-05-25T07:43:04.974Z,16.96
2019-05-25T07:45:33.537Z,16.43
2019-05-25T07:48:02.101Z,16.36
2019-05-25T07:50:30.665Z,16.42
2019-05-25T07:52:59.381Z,16.50
2019-05-25T07:55:27.925Z,16.56
2019-05-25T07:57:56.484Z,16.52
2019-05-25T08:00:25.049Z,16.55
2019-05-25T08:02:53.770Z,16.27
2019-05-25T08:05:22.311Z,16.23
2019-05-25T08:07:50.810Z,16.43
2019-05-25T08:10:19.445Z,16.49
2019-05-25T08:12:47.966Z,16.30
2019-05-25T08:15:16.477Z,16.39
2019-05-25T08:17:44.960Z,16.35
2019-05-25T08:20:13.778Z,16.27
2019-05-25T08:22:42.418Z,16.30
2019-05-25T08:25:10.961Z,16.39
2019-05-25T08:27:39.429Z,16.41
2019-05-25T08:30:08.081Z,16.44
2019-05-25T08:32:36.709Z,16.48
2019-05-25T08:35:06.615Z,16.51
2019-05-25T08:37:35.177Z,16.72
2019-05-25T08:40:05.404Z,16.94
2019-05-25T08:42:34.010Z,16.99
2019-05-25T08:45:02.496Z,17.10
2019-05-25T08:47:31.087Z,17.26
2019-05-25T08:49:59.619Z,17.43
2019-05-25T08:52:28.093Z,17.50
2019-05-25T08:54:56.869Z,17.71
2019-05-25T08:57:25.489Z,17.94
2019-05-25T08:59:54.034Z,17.96
2019-05-25T09:02:22.518Z,17.85
2019-05-25T09:04:51.044Z,17.91
2019-05-25T09:07:19.516Z,17.70
2019-05-25T09:09:48.022Z,17.74
2019-05-25T09:12:16.525Z,17.82
2019-05-25T09:14:45.047Z,18.04
2019-05-25T09:17:13.631Z,17.97
2019-05-25T09:19:42.164Z,17.84
2019-05-25T09:22:10.744Z,17.69
2019-05-25T09:24:39.255Z,17.64
2019-05-25T09:27:07.804Z,17.51
2019-05-25T09:29:36.331Z,17.40
2019-05-25T09:32:07.011Z,17.49
2019-05-25T09:34:35.166Z,17.49
2019-05-25T09:37:03.647Z,17.70
2019-05-25T09:39:32.129Z,17.50
2019-05-25T09:42:00.713Z,17.51
2019-05-25T09:44:29.260Z,17.60
2019-05-25T09:46:57.769Z,17.64
2019-05-25T09:49:26.278Z,17.89
2019-05-25T09:51:54.824Z,17.76
2019-05-25T09:54:23.432Z,17.76
2019-05-25T09:56:52.020Z,17.89
2019-05-25T09:59:20.758Z,17.88
2019-05-25T10:01:49.469Z,18.09
2019-05-25T10:04:18.033Z,18.06
2019-05-25T10:06:46.804Z,17.85
2019-05-25T10:09:15.475Z,18.19
2019-05-25T10:11:44.106Z,18.24
2019-05-25T10:14:12.710Z,18.44
2019-05-25T10:16:41.290Z,18.61
2019-05-25T10:19:09.789Z,19.11
2019-05-25T10:21:38.409Z,19.08
2019-05-25T10:24:07.116Z,19.09
2019-05-25T10:26:35.642Z,19.01
2019-05-25T10:29:04.120Z,19.57
2019-05-25T10:31:32.673Z,19.73
2019-05-25T10:34:01.230Z,19.70
2019-05-25T10:36:29.933Z,20.09
2019-05-25T10:38:58.657Z,20.62
2019-05-25T10:41:27.265Z,20.52
2019-05-25T10:43:55.796Z,20.19
2019-05-25T10:46:24.464Z,20.60
2019-05-25T10:48:53.064Z,20.88
2019-05-25T10:51:21.535Z,21.01
2019-05-25T10:53:50.081Z,20.67
2019-05-25T10:56:18.600Z,20.86
2019-05-25T10:58:47.209Z,20.96
2019-05-25T11:01:15.856Z,21.29
2019-05-25T11:03:44.487Z,21.52
2019-05-25T11:06:12.967Z,21.97
2019-05-25T11:08:41.898Z,21.76
2019-05-25T11:11:10.460Z,21.78
2019-05-25T11:13:38.949Z,21.26
2019-05-25T11:16:07.636Z,21.37
2019-05-25T11:18:36.229Z,21.43
2019-05-25T11:21:04.802Z,20.97
2019-05-25T11:23:33.354Z,21.27
2019-05-25T11:26:01.920Z,21.70
2019-05-25T11:28:30.582Z,21.55
2019-05-25T11:30:59.119Z,21.63
2019-05-25T11:33:27.887Z,21.87
2019-05-25T11:35:56.573Z,21.62
2019-05-25T11:38:25.168Z,22.00
2019-05-25T11:40:53.764Z,21.90
2019-05-25T11:43:22.339Z,22.00
2019-05-25T11:45:50.824Z,21.45
2019-05-25T11:48:19.345Z,21.77
2019-05-25T11:50:47.885Z,22.32
2019-05-25T11:53:16.561Z,22.41
2019-05-25T11:55:45.107Z,22.24
2019-05-25T11:58:13.670Z,22.50
2019-05-25T12:00:42.227Z,22.40
2019-05-25T12:03:10.789Z,22.91
2019-05-25T12:05:39.318Z,24.54
2019-05-25T12:08:07.945Z,25.49
2019-05-25T12:10:36.445Z,25.43
2019-05-25T12:13:05.033Z,26.61
2019-05-25T12:15:33.605Z,27.11
2019-05-25T12:18:02.240Z,25.39
2019-05-25T12:20:30.865Z,25.59
2019-05-25T12:22:59.523Z,24.96
2019-05-25T12:25:28.149Z,25.15
2019-05-25T12:27:56.656Z,25.38
2019-05-25T12:30:39.751Z,25.63
2019-05-25T12:32:56.244Z,24.94
2019-05-25T12:35:24.843Z,25.43
2019-05-25T12:37:53.470Z,26.29
2019-05-25T12:40:22.003Z,25.91
2019-05-25T12:42:50.515Z,25.88
2019-05-25T12:45:19.148Z,27.08
2019-05-25T12:47:47.641Z,27.43
2019-05-25T12:50:16.115Z,27.00
2019-05-25T12:52:44.629Z,26.98
2019-05-25T12:55:13.201Z,25.36
2019-05-25T12:57:41.749Z,24.45
2019-05-25T13:00:16.043Z,24.65
2019-05-25T13:02:41.051Z,24.41
2019-05-25T13:05:09.643Z,24.06
2019-05-25T13:07:38.195Z,23.43
2019-05-25T13:10:07.389Z,23.14
2019-05-25T13:12:36.000Z,23.04
2019-05-25T13:15:08.516Z,23.15
2019-05-25T13:17:37.022Z,23.10
2019-05-25T13:20:06.330Z,23.12
2019-05-25T13:22:34.874Z,23.26
2019-05-25T13:25:04.675Z,23.30
2019-05-25T13:27:33.285Z,23.09
2019-05-25T13:30:03.251Z,22.67
2019-05-25T13:32:32.155Z,22.56
2019-05-25T13:35:00.783Z,22.18
2019-05-25T13:37:29.329Z,22.12
2019-05-25T13:39:57.947Z,22.31
2019-05-25T13:42:26.575Z,22.23
2019-05-25T13:44:55.158Z,22.23
2019-05-25T13:47:23.695Z,21.86
2019-05-25T13:49:52.192Z,21.93
2019-05-25T13:52:20.785Z,21.94
2019-05-25T13:54:49.464Z,21.92
2019-05-25T13:57:18.070Z,22.10
2019-05-25T13:59:46.629Z,22.22
2019-05-25T14:02:15.223Z,21.97
2019-05-25T14:04:43.776Z,22.62
2019-05-25T14:07:12.369Z,23.49
2019-05-25T14:09:41.002Z,23.70
2019-05-25T14:12:09.522Z,23.67
2019-05-25T14:14:38.011Z,23.23
2019-05-25T14:17:06.556Z,23.88
2019-05-25T14:19:35.151Z,24.40
2019-05-25T14:22:03.726Z,25.19
2019-05-25T14:24:32.306Z,24.71
2019-05-25T14:27:00.812Z,24.13
2019-05-25T14:29:29.502Z,24.76
2019-05-25T14:31:58.099Z,24.78
2019-05-25T14:34:26.680Z,24.98
2019-05-25T14:36:55.284Z,24.96
2019-05-25T14:39:23.808Z,24.74
2019-05-25T14:41:52.363Z,24.22
2019-05-25T14:44:20.939Z,23.91
2019-05-25T14:46:49.477Z,23.61
2019-05-25T14:49:18.058Z,23.90
2019-05-25T14:51:48.270Z,24.37
2019-05-25T14:54:16.873Z,23.98
2019-05-25T14:56:45.453Z,23.99
2019-05-25T14:59:13.964Z,23.91
2019-05-25T15:01:42.608Z,24.51
2019-05-25T15:04:11.188Z,24.90
2019-05-25T15:06:39.874Z,25.10
2019-05-25T15:09:08.510Z,25.18
2019-05-25T15:11:37.047Z,25.92
2019-05-25T15:14:05.558Z,26.43
2019-05-25T15:16:34.149Z,25.84
2019-05-25T15:19:02.764Z,26.13
2019-05-25T15:21:31.306Z,26.49
2019-05-25T15:23:59.954Z,26.56
2019-05-25T15:26:28.572Z,26.71
2019-05-25T15:28:57.129Z,27.09
2019-05-25T15:31:25.707Z,27.33
2019-05-25T15:33:54.290Z,26.73
2019-05-25T15:36:22.809Z,26.79
2019-05-25T15:38:51.349Z,27.04
2019-05-25T15:41:19.933Z,27.10
2019-05-25T15:43:48.454Z,27.66
2019-05-25T15:46:17.003Z,28.06
2019-05-25T15:48:45.556Z,27.54
2019-05-25T15:51:14.128Z,28.08
2019-05-25T15:53:42.653Z,28.18
2019-05-25T15:56:11.182Z,28.74
2019-05-25T15:58:39.769Z,28.63
2019-05-25T16:01:08.436Z,28.49
2019-05-25T16:03:36.979Z,28.37
2019-05-25T16:06:05.517Z,28.64
2019-05-25T16:08:34.065Z,28.58
2019-05-25T16:11:02.644Z,28.01
2019-05-25T16:13:31.215Z,28.09
2019-05-25T16:15:59.923Z,27.75
2019-05-25T16:18:28.531Z,27.86
2019-05-25T16:20:57.099Z,28.07
2019-05-25T16:23:25.700Z,28.09
2019-05-25T16:25:54.184Z,27.97
2019-05-25T16:28:22.841Z,28.23
2019-05-25T16:30:51.465Z,28.18
2019-05-25T16:33:20.000Z,27.44
2019-05-25T16:35:48.605Z,26.84
2019-05-25T16:38:17.246Z,26.03
2019-05-25T16:40:45.764Z,26.12
2019-05-25T16:43:14.388Z,26.41
2019-05-25T16:45:42.961Z,25.98
2019-05-25T16:48:11.814Z,25.79
2019-05-25T16:50:40.449Z,25.44
2019-05-25T16:53:08.976Z,25.14
2019-05-25T16:55:37.538Z,24.52
2019-05-25T16:58:06.118Z,24.51
2019-05-25T17:00:34.604Z,24.32
2019-05-25T17:03:03.249Z,23.97
2019-05-25T17:05:31.838Z,23.57
2019-05-25T17:08:00.350Z,23.42
2019-05-25T17:10:28.989Z,23.42
2019-05-25T17:12:57.580Z,22.75
2019-05-25T17:15:26.152Z,22.37
2019-05-25T17:17:54.723Z,22.06
2019-05-25T17:20:23.248Z,21.91
2019-05-25T17:22:51.809Z,21.84
2019-05-25T17:25:20.369Z,21.83
2019-05-25T17:27:48.900Z,21.55
2019-05-25T17:30:19.047Z,21.52
2019-05-25T17:32:47.663Z,21.53
2019-05-25T17:35:16.150Z,21.47
2019-05-25T17:37:44.848Z,21.37
2019-05-25T17:40:13.378Z,21.31
2019-05-25T17:42:41.895Z,21.16
2019-05-25T17:45:10.706Z,21.12
2019-05-25T17:47:39.265Z,20.99
2019-05-25T17:50:08.069Z,20.93
2019-05-25T17:52:36.655Z,20.71
2019-05-25T17:55:08.019Z,20.72
2019-05-25T17:57:36.526Z,20.46
2019-05-25T18:00:06.796Z,20.54
2019-05-25T18:02:35.434Z,20.60
2019-05-25T18:05:06.085Z,20.45
2019-05-25T18:07:34.635Z,20.69
2019-05-25T18:10:04.614Z,20.62
2019-05-25T18:12:33.155Z,20.38
2019-05-25T18:15:01.701Z,20.34
2019-05-25T18:17:30.270Z,20.10
2019-05-25T18:19:58.836Z,20.10
2019-05-25T18:22:27.429Z,20.12
2019-05-25T18:24:55.955Z,20.10
2019-05-25T18:27:25.359Z,20.00
2019-05-25T18:29:53.876Z,20.14
2019-05-25T18:32:22.548Z,20.04
2019-05-25T18:34:51.129Z,19.97
2019-05-25T18:37:19.745Z,19.87
2019-05-25T18:39:48.270Z,19.79
2019-05-25T18:42:16.786Z,19.86
2019-05-25T18:44:45.291Z,19.75
2019-05-25T18:47:13.809Z,19.78
2019-05-25T18:49:42.478Z,19.60
2019-05-25T18:52:11.064Z,19.45
2019-05-25T18:54:39.932Z,19.48
2019-05-25T18:57:09.560Z,19.43
2019-05-25T18:59:38.401Z,19.46
2019-05-25T19:02:07.019Z,19.46
2019-05-25T19:04:44.770Z,19.39
2019-05-25T19:07:05.742Z,19.35
2019-05-25T19:09:34.353Z,19.21
2019-05-25T19:12:03.168Z,19.11
2019-05-25T19:14:34.194Z,19.18
2019-05-25T19:17:02.805Z,19.12
2019-05-25T19:19:31.380Z,18.99
2019-05-25T19:22:00.068Z,18.79
2019-05-25T19:24:28.641Z,18.77
2019-05-25T19:26:59.034Z,18.70
2019-05-25T19:29:27.628Z,18.67
2019-05-25T19:31:56.190Z,18.58
2019-05-25T19:34:26.346Z,18.43
2019-05-25T19:37:03.324Z,18.40
2019-05-25T19:39:28.103Z,18.34
2019-05-25T19:41:56.698Z,18.27
2019-05-25T19:44:25.330Z,18.23
2019-05-25T19:46:53.909Z,18.13
2019-05-25T19:49:22.568Z,18.04
2019-05-25T19:51:51.168Z,18.01
2019-05-25T19:54:19.834Z,18.02
2019-05-25T19:56:48.434Z,18.04
2019-05-25T19:59:17.016Z,18.04
2019-05-25T20:01:46.066Z,18.06
2019-05-25T20:04:14.720Z,18.10
2019-05-25T20:06:43.587Z,18.06
2019-05-25T20:09:12.180Z,18.03
2019-05-25T20:11:40.785Z,18.04
2019-05-25T20:14:09.543Z,18.03
2019-05-25T20:16:38.148Z,18.04
2019-05-25T20:19:06.738Z,18.00
2019-05-25T20:21:40.092Z,18.01
2019-05-25T20:24:08.856Z,17.95
2019-05-25T20:26:39.390Z,17.88
2019-05-25T20:29:12.545Z,17.84
2019-05-25T20:31:47.444Z,17.77
2019-05-25T20:34:26.959Z,17.77
2019-05-25T20:37:16.028Z,17.71
2019-05-25T20:39:44.860Z,17.65
2019-05-25T20:42:15.135Z,17.62
2019-05-25T20:44:43.992Z,17.60
2019-05-25T20:47:12.547Z,17.53
2019-05-25T20:49:41.039Z,17.54
2019-05-25T20:52:09.542Z,17.53
2019-05-25T20:54:38.556Z,17.53
2019-05-25T20:57:07.094Z,17.54
2019-05-25T20:59:53.816Z,17.61
2019-05-25T21:02:13.731Z,17.69
2019-05-25T21:04:42.322Z,17.71
2019-05-25T21:07:10.853Z,17.75
2019-05-25T21:09:39.485Z,17.75
2019-05-25T21:12:08.109Z,17.74
2019-05-25T21:14:36.743Z,17.65
2019-05-25T21:17:05.327Z,17.61
2019-05-25T21:19:34.255Z,17.57
2019-05-25T21:22:02.830Z,17.58
2019-05-25T21:24:31.383Z,17.63
2019-05-25T21:26:59.945Z,17.63
2019-05-25T21:29:28.443Z,17.67
2019-05-25T21:31:57.032Z,17.62
2019-05-25T21:34:25.599Z,17.47
2019-05-25T21:36:54.230Z,17.45
2019-05-25T21:39:22.769Z,17.47
2019-05-25T21:41:51.669Z,17.30
2019-05-25T21:44:24.072Z,17.13
2019-05-25T21:46:57.412Z,17.00
2019-05-25T21:49:25.945Z,17.04
2019-05-25T21:51:54.532Z,16.90
2019-05-25T21:54:23.096Z,16.86
2019-05-25T21:56:51.646Z,16.75
2019-05-25T21:59:20.262Z,16.63
2019-05-25T22:01:48.933Z,16.67
2019-05-25T22:04:17.501Z,16.70
2019-05-25T22:06:46.123Z,16.67
2019-05-25T22:09:14.684Z,16.56
2019-05-25T22:11:43.339Z,16.54
2019-05-25T22:14:11.822Z,16.44
2019-05-25T22:16:40.328Z,16.46
2019-05-25T22:19:08.847Z,16.40
2019-05-25T22:21:37.439Z,16.36
2019-05-25T22:24:06.029Z,16.37
2019-05-25T22:26:34.636Z,16.26
2019-05-25T22:29:03.167Z,16.14
2019-05-25T22:31:31.776Z,16.03
2019-05-25T22:34:00.314Z,15.93
2019-05-25T22:36:39.914Z,15.87
2019-05-25T22:38:59.037Z,15.80
2019-05-25T22:41:27.647Z,15.75
2019-05-25T22:43:56.201Z,15.74
2019-05-25T22:46:24.714Z,15.61
2019-05-25T22:48:53.289Z,15.63
2019-05-25T22:51:21.821Z,15.71
2019-05-25T22:53:50.434Z,15.69
2019-05-25T22:56:19.051Z,15.69
2019-05-25T22:58:47.620Z,15.67
2019-05-25T23:01:16.132Z,15.60
2019-05-25T23:03:44.641Z,15.58
2019-05-25T23:06:13.146Z,15.52
2019-05-25T23:08:41.668Z,15.36
2019-05-25T23:11:10.224Z,15.22
2019-05-25T23:13:38.736Z,15.16
2019-05-25T23:16:08.879Z,15.07
2019-05-25T23:18:37.405Z,14.98
2019-05-25T23:21:05.920Z,14.94
2019-05-25T23:23:34.451Z,14.86
2019-05-25T23:26:03.002Z,14.85
2019-05-25T23:28:31.552Z,14.76
2019-05-25T23:31:00.237Z,14.65
2019-05-25T23:33:28.878Z,14.55
2019-05-25T23:35:57.461Z,14.46
2019-05-25T23:38:26.021Z,14.42
2019-05-25T23:40:54.533Z,14.42
2019-05-25T23:43:23.126Z,14.34
2019-05-25T23:45:51.667Z,14.37
2019-05-25T23:48:20.186Z,14.40
2019-05-25T23:50:49.169Z,14.34
2019-05-25T23:53:17.760Z,14.35
2019-05-25T23:55:46.377Z,14.34
2019-05-25T23:58:14.948Z,14.35
